Aérodrome :
LOGIN :

S'inscrire | Disclaimer

   EN    FR    IT 

 










Légende :    VFR   VFR Marginal   IFR   IFR Intensif   IFR Très Intensif
Visi : 
Plafond : 
>= 8 km
>= 3000ft
5 à 8 km
1000 à 3000 ft
1500m à 5 km
500 à 1000 ft
800 à 1500m
200 à 500 ft
< 800m
< 200 ft
Symboles :   Orages  Brouillard  Fortes neiges  Fortes précipitations  Vent > 20 kt
SIGMETs :   Divers  Orages  Givrage  Turbulence  Onde Orograph.  Cendres Volcan.






- Altitude de l'aérodrome : 297 ft
- Code IATA : BBU


LRBS - Bucarest - Baneasa Aurel Vlaicu

DERNIER METAR :
  • 021630Z 04001KT CAVOK 10/M07 Q1014 NOSIG

METARs EXPIRÉS :
  • 021600Z 00000KT CAVOK 11/M08 Q1014 NOSIG
  • 021530Z 00000KT CAVOK 12/M08 Q1014 NOSIG
  • 021500Z 11004KT CAVOK 11/M09 Q1015 NOSIG
  • 021430Z 02004KT 330V050 CAVOK 12/M09 Q1015 NOSIG
  • 021400Z VRB03KT CAVOK 11/M08 Q1015 NOSIG

TAF TAF LRBS
Valide du 02 à 12h jusqu'au 03 à 12h UTC


021100Z 0212/0312 VRB04KT CAVOK



MET'MAP, la Météo Aéronautique d'un coup d'oeil ! - Copyright ORBIFLY Décembre 2007 - Disclaimer

ORBIFLY MET'MAP TEAM :

Programmation & Développement : Alexandra Zaïnal
Sur une idée originale de : Baudouin d'Aumeries
Assistance à la programmation : Marc-Olivier Méhu
Soutien technique & logistique : Manuel Goepfert

Contact : metmap@orbifly.com




SOURCES & CREDITS :

   NOAA